sensor_id;sensor_type;location;lat;lon;timestamp;pressure;altitude;pressure_sealevel;temperature;humidity
57801;BME280;43627;42.728;23.256;2023-07-31T00:01:35;94656.31;;;19.37;100.00
57801;BME280;43627;42.728;23.256;2023-07-31T00:04:02;94659.75;;;19.44;100.00
57801;BME280;43627;42.728;23.256;2023-07-31T00:06:28;94651.53;;;19.38;100.00
57801;BME280;43627;42.728;23.256;2023-07-31T00:08:55;94656.47;;;19.45;100.00
57801;BME280;43627;42.728;23.256;2023-07-31T00:11:22;94666.78;;;19.45;100.00
57801;BME280;43627;42.728;23.256;2023-07-31T00:13:48;94652.06;;;19.36;100.00
57801;BME280;43627;42.728;23.256;2023-07-31T00:16:15;94653.63;;;19.32;100.00
57801;BME280;43627;42.728;23.256;2023-07-31T00:18:42;94660.75;;;19.27;100.00
57801;BME280;43627;42.728;23.256;2023-07-31T00:21:08;94654.09;;;19.36;100.00
57801;BME280;43627;42.728;23.256;2023-07-31T00:23:35;94647.28;;;19.37;100.00
57801;BME280;43627;42.728;23.256;2023-07-31T00:26:02;94642.91;;;19.28;100.00
57801;BME280;43627;42.728;23.256;2023-07-31T00:28:28;94629.09;;;19.28;100.00
57801;BME280;43627;42.728;23.256;2023-07-31T00:30:55;94628.00;;;19.18;100.00
57801;BME280;43627;42.728;23.256;2023-07-31T00:33:22;94627.09;;;19.10;100.00
57801;BME280;43627;42.728;23.256;2023-07-31T00:35:49;94615.91;;;19.02;100.00
57801;BME280;43627;42.728;23.256;2023-07-31T00:38:15;94621.97;;;19.01;100.00
57801;BME280;43627;42.728;23.256;2023-07-31T00:40:42;94625.84;;;19.11;100.00
57801;BME280;43627;42.728;23.256;2023-07-31T00:43:08;94619.88;;;19.07;100.00
57801;BME280;43627;42.728;23.256;2023-07-31T00:45:35;94617.47;;;19.17;100.00
57801;BME280;43627;42.728;23.256;2023-07-31T00:48:02;94618.81;;;19.10;100.00
57801;BME280;43627;42.728;23.256;2023-07-31T00:50:29;94621.16;;;19.06;100.00
57801;BME280;43627;42.728;23.256;2023-07-31T00:52:56;94624.19;;;19.02;100.00
57801;BME280;43627;42.728;23.256;2023-07-31T00:55:23;94608.16;;;19.01;100.00
57801;BME280;43627;42.728;23.256;2023-07-31T00:57:50;94618.38;;;19.06;100.00
57801;BME280;43627;42.728;23.256;2023-07-31T01:00:19;94611.47;;;19.12;100.00
57801;BME280;43627;42.728;23.256;2023-07-31T01:02:46;94615.22;;;19.15;100.00
57801;BME280;43627;42.728;23.256;2023-07-31T01:05:13;94606.19;;;19.15;100.00
57801;BME280;43627;42.728;23.256;2023-07-31T01:07:53;94615.75;;;19.13;100.00
57801;BME280;43627;42.728;23.256;2023-07-31T01:12:51;94610.38;;;19.02;100.00
57801;BME280;43627;42.728;23.256;2023-07-31T01:15:20;94603.84;;;19.05;100.00
57801;BME280;43627;42.728;23.256;2023-07-31T01:17:47;94601.16;;;19.00;100.00
57801;BME280;43627;42.728;23.256;2023-07-31T01:20:21;94610.78;;;18.93;100.00
57801;BME280;43627;42.728;23.256;2023-07-31T01:23:58;94610.78;;;18.93;100.00
57801;BME280;43627;42.728;23.256;2023-07-31T01:28:55;94591.06;;;19.02;100.00
57801;BME280;43627;42.728;23.256;2023-07-31T01:31:24;94598.31;;;19.05;100.00
57801;BME280;43627;42.728;23.256;2023-07-31T01:33:53;94603.84;;;19.05;100.00
57801;BME280;43627;42.728;23.256;2023-07-31T01:36:21;94591.56;;;19.01;100.00
57801;BME280;43627;42.728;23.256;2023-07-31T01:38:48;94583.50;;;19.03;100.00
57801;BME280;43627;42.728;23.256;2023-07-31T01:41:17;94587.41;;;18.94;100.00
57801;BME280;43627;42.728;23.256;2023-07-31T01:43:45;94597.88;;;18.82;100.00
57801;BME280;43627;42.728;23.256;2023-07-31T01:46:11;94601.34;;;18.70;100.00
57801;BME280;43627;42.728;23.256;2023-07-31T01:48:38;94590.44;;;18.59;100.00
57801;BME280;43627;42.728;23.256;2023-07-31T01:51:05;94580.22;;;18.35;100.00
57801;BME280;43627;42.728;23.256;2023-07-31T01:53:32;94605.13;;;18.48;100.00
57801;BME280;43627;42.728;23.256;2023-07-31T01:55:59;94605.94;;;18.43;100.00
57801;BME280;43627;42.728;23.256;2023-07-31T01:58:26;94599.63;;;18.48;100.00
57801;BME280;43627;42.728;23.256;2023-07-31T02:00:52;94613.34;;;18.53;100.00
57801;BME280;43627;42.728;23.256;2023-07-31T02:03:19;94610.19;;;18.63;100.00
57801;BME280;43627;42.728;23.256;2023-07-31T02:05:49;94609.09;;;18.71;100.00
57801;BME280;43627;42.728;23.256;2023-07-31T02:08:16;94605.06;;;18.72;100.00
57801;BME280;43627;42.728;23.256;2023-07-31T02:10:43;94613.41;;;18.86;100.00
57801;BME280;43627;42.728;23.256;2023-07-31T02:13:10;94608.34;;;18.90;100.00
57801;BME280;43627;42.728;23.256;2023-07-31T02:15:37;94611.75;;;18.96;100.00
57801;BME280;43627;42.728;23.256;2023-07-31T02:18:04;94596.91;;;18.99;100.00
57801;BME280;43627;42.728;23.256;2023-07-31T02:20:34;94607.41;;;19.00;100.00
57801;BME280;43627;42.728;23.256;2023-07-31T02:23:01;94601.34;;;19.02;100.00
57801;BME280;43627;42.728;23.256;2023-07-31T02:25:28;94605.97;;;19.12;100.00
57801;BME280;43627;42.728;23.256;2023-07-31T02:27:55;94614.09;;;19.24;100.00
57801;BME280;43627;42.728;23.256;2023-07-31T02:30:22;94604.34;;;19.36;100.00
57801;BME280;43627;42.728;23.256;2023-07-31T02:32:49;94599.09;;;19.32;100.00
57801;BME280;43627;42.728;23.256;2023-07-31T02:35:16;94603.38;;;19.47;100.00
57801;BME280;43627;42.728;23.256;2023-07-31T02:37:42;94597.72;;;19.26;100.00
57801;BME280;43627;42.728;23.256;2023-07-31T02:40:10;94604.72;;;19.27;100.00
57801;BME280;43627;42.728;23.256;2023-07-31T02:42:36;94614.44;;;19.33;100.00
57801;BME280;43627;42.728;23.256;2023-07-31T02:45:03;94613.16;;;19.34;100.00
57801;BME280;43627;42.728;23.256;2023-07-31T02:47:30;94607.50;;;19.27;100.00
57801;BME280;43627;42.728;23.256;2023-07-31T02:49:57;94617.19;;;19.33;100.00
57801;BME280;43627;42.728;23.256;2023-07-31T02:52:24;94630.78;;;19.31;100.00
57801;BME280;43627;42.728;23.256;2023-07-31T02:54:50;94619.72;;;19.31;100.00
57801;BME280;43627;42.728;23.256;2023-07-31T02:57:17;94623.91;;;19.38;100.00
57801;BME280;43627;42.728;23.256;2023-07-31T02:59:44;94625.72;;;19.49;100.00
57801;BME280;43627;42.728;23.256;2023-07-31T03:02:10;94623.81;;;19.44;100.00
57801;BME280;43627;42.728;23.256;2023-07-31T03:04:39;94638.03;;;19.34;100.00
57801;BME280;43627;42.728;23.256;2023-07-31T03:07:05;94635.56;;;19.31;100.00
57801;BME280;43627;42.728;23.256;2023-07-31T03:09:32;94634.94;;;19.25;100.00
57801;BME280;43627;42.728;23.256;2023-07-31T03:11:59;94638.09;;;19.16;100.00
57801;BME280;43627;42.728;23.256;2023-07-31T03:14:26;94641.19;;;19.25;100.00
57801;BME280;43627;42.728;23.256;2023-07-31T03:16:55;94626.19;;;19.21;100.00
57801;BME280;43627;42.728;23.256;2023-07-31T03:19:22;94645.00;;;19.22;100.00
57801;BME280;43627;42.728;23.256;2023-07-31T03:21:49;94616.66;;;19.03;100.00
57801;BME280;43627;42.728;23.256;2023-07-31T03:24:15;94635.00;;;19.19;100.00
57801;BME280;43627;42.728;23.256;2023-07-31T03:26:42;94638.44;;;19.25;100.00
57801;BME280;43627;42.728;23.256;2023-07-31T03:29:09;94630.75;;;19.18;100.00
57801;BME280;43627;42.728;23.256;2023-07-31T03:31:35;94649.69;;;19.27;100.00
57801;BME280;43627;42.728;23.256;2023-07-31T03:34:02;94642.81;;;19.34;100.00
57801;BME280;43627;42.728;23.256;2023-07-31T03:36:29;94651.88;;;19.34;100.00
57801;BME280;43627;42.728;23.256;2023-07-31T03:38:55;94658.13;;;19.35;100.00
57801;BME280;43627;42.728;23.256;2023-07-31T03:41:22;94655.44;;;19.29;100.00
57801;BME280;43627;42.728;23.256;2023-07-31T03:43:50;94660.84;;;19.22;100.00
57801;BME280;43627;42.728;23.256;2023-07-31T03:46:23;94669.59;;;19.26;100.00
57801;BME280;43627;42.728;23.256;2023-07-31T03:48:50;94663.06;;;19.23;100.00
57801;BME280;43627;42.728;23.256;2023-07-31T03:51:17;94661.94;;;19.32;100.00
57801;BME280;43627;42.728;23.256;2023-07-31T03:53:44;94665.34;;;19.25;100.00
57801;BME280;43627;42.728;23.256;2023-07-31T03:56:11;94666.50;;;19.29;100.00
57801;BME280;43627;42.728;23.256;2023-07-31T03:58:38;94659.69;;;19.30;100.00
57801;BME280;43627;42.728;23.256;2023-07-31T04:01:05;94675.31;;;19.28;100.00
57801;BME280;43627;42.728;23.256;2023-07-31T04:03:32;94676.75;;;19.34;100.00
57801;BME280;43627;42.728;23.256;2023-07-31T04:05:59;94679.38;;;19.27;100.00
57801;BME280;43627;42.728;23.256;2023-07-31T04:08:25;94675.75;;;19.32;100.00
57801;BME280;43627;42.728;23.256;2023-07-31T04:10:52;94682.66;;;19.25;100.00
57801;BME280;43627;42.728;23.256;2023-07-31T04:13:19;94664.19;;;19.33;100.00
57801;BME280;43627;42.728;23.256;2023-07-31T04:15:49;94673.88;;;19.40;100.00
57801;BME280;43627;42.728;23.256;2023-07-31T04:18:18;94674.84;;;19.43;100.00
57801;BME280;43627;42.728;23.256;2023-07-31T04:20:45;94659.09;;;19.37;100.00
57801;BME280;43627;42.728;23.256;2023-07-31T04:23:12;94682.50;;;19.50;100.00
57801;BME280;43627;42.728;23.256;2023-07-31T04:25:38;94677.19;;;19.52;100.00
57801;BME280;43627;42.728;23.256;2023-07-31T04:28:05;94683.22;;;19.56;100.00
57801;BME280;43627;42.728;23.256;2023-07-31T04:30:32;94683.34;;;19.63;100.00
57801;BME280;43627;42.728;23.256;2023-07-31T04:32:59;94690.06;;;19.81;100.00
57801;BME280;43627;42.728;23.256;2023-07-31T04:35:26;94690.72;;;19.87;100.00
57801;BME280;43627;42.728;23.256;2023-07-31T04:37:52;94690.53;;;20.12;100.00
57801;BME280;43627;42.728;23.256;2023-07-31T04:40:20;94676.47;;;20.23;100.00
57801;BME280;43627;42.728;23.256;2023-07-31T04:42:47;94683.78;;;20.73;100.00
57801;BME280;43627;42.728;23.256;2023-07-31T04:45:14;94689.78;;;21.11;100.00
57801;BME280;43627;42.728;23.256;2023-07-31T04:47:48;94692.00;;;21.47;100.00
57801;BME280;43627;42.728;23.256;2023-07-31T04:50:15;94677.53;;;21.83;100.00
57801;BME280;43627;42.728;23.256;2023-07-31T04:52:41;94682.31;;;22.03;100.00
57801;BME280;43627;42.728;23.256;2023-07-31T04:55:08;94681.19;;;22.27;100.00
57801;BME280;43627;42.728;23.256;2023-07-31T04:57:35;94672.84;;;21.99;100.00
57801;BME280;43627;42.728;23.256;2023-07-31T05:00:02;94676.28;;;22.41;100.00
57801;BME280;43627;42.728;23.256;2023-07-31T05:02:29;94680.28;;;22.32;100.00
57801;BME280;43627;42.728;23.256;2023-07-31T05:04:56;94680.69;;;22.72;100.00
57801;BME280;43627;42.728;23.256;2023-07-31T05:07:24;94693.41;;;22.96;100.00
57801;BME280;43627;42.728;23.256;2023-07-31T05:09:50;94679.56;;;22.68;100.00
57801;BME280;43627;42.728;23.256;2023-07-31T05:12:17;94687.47;;;21.99;100.00
57801;BME280;43627;42.728;23.256;2023-07-31T05:14:44;94677.00;;;21.43;100.00
57801;BME280;43627;42.728;23.256;2023-07-31T05:17:10;94683.50;;;21.45;100.00
57801;BME280;43627;42.728;23.256;2023-07-31T05:19:37;94685.81;;;21.20;100.00
57801;BME280;43627;42.728;23.256;2023-07-31T05:22:04;94662.56;;;20.89;100.00
57801;BME280;43627;42.728;23.256;2023-07-31T05:24:31;94682.31;;;21.41;100.00
57801;BME280;43627;42.728;23.256;2023-07-31T05:27:00;94687.59;;;21.93;100.00
57801;BME280;43627;42.728;23.256;2023-07-31T05:29:26;94689.78;;;22.08;100.00
57801;BME280;43627;42.728;23.256;2023-07-31T05:31:53;94686.94;;;22.58;100.00
57801;BME280;43627;42.728;23.256;2023-07-31T05:34:20;94688.56;;;22.89;100.00
57801;BME280;43627;42.728;23.256;2023-07-31T05:36:47;94697.41;;;23.31;100.00
57801;BME280;43627;42.728;23.256;2023-07-31T05:39:13;94687.19;;;22.83;100.00
57801;BME280;43627;42.728;23.256;2023-07-31T05:41:40;94687.75;;;22.37;100.00
57801;BME280;43627;42.728;23.256;2023-07-31T05:44:07;94697.94;;;22.42;100.00
57801;BME280;43627;42.728;23.256;2023-07-31T05:46:33;94690.47;;;22.66;100.00
57801;BME280;43627;42.728;23.256;2023-07-31T05:49:00;94694.28;;;22.84;100.00
57801;BME280;43627;42.728;23.256;2023-07-31T05:51:27;94690.69;;;23.19;100.00
57801;BME280;43627;42.728;23.256;2023-07-31T05:53:54;94694.72;;;23.62;100.00
57801;BME280;43627;42.728;23.256;2023-07-31T05:56:21;94691.31;;;23.48;100.00
57801;BME280;43627;42.728;23.256;2023-07-31T05:58:48;94680.34;;;23.27;100.00
57801;BME280;43627;42.728;23.256;2023-07-31T06:01:16;94705.88;;;23.03;100.00
57801;BME280;43627;42.728;23.256;2023-07-31T06:03:43;94695.56;;;23.34;100.00
57801;BME280;43627;42.728;23.256;2023-07-31T06:06:11;94708.63;;;23.62;98.06
57801;BME280;43627;42.728;23.256;2023-07-31T06:08:37;94713.38;;;23.46;98.37
57801;BME280;43627;42.728;23.256;2023-07-31T06:11:04;94706.28;;;23.30;100.00
57801;BME280;43627;42.728;23.256;2023-07-31T06:13:31;94697.63;;;23.49;99.84
57801;BME280;43627;42.728;23.256;2023-07-31T06:15:58;94699.31;;;22.85;100.00
57801;BME280;43627;42.728;23.256;2023-07-31T06:18:26;94710.13;;;23.04;100.00
57801;BME280;43627;42.728;23.256;2023-07-31T06:20:52;94714.28;;;23.26;100.00
57801;BME280;43627;42.728;23.256;2023-07-31T06:23:20;94714.66;;;22.50;100.00
57801;BME280;43627;42.728;23.256;2023-07-31T06:25:47;94707.19;;;22.37;100.00
57801;BME280;43627;42.728;23.256;2023-07-31T06:28:14;94714.28;;;22.17;100.00
57801;BME280;43627;42.728;23.256;2023-07-31T06:30:41;94715.16;;;21.91;100.00
57801;BME280;43627;42.728;23.256;2023-07-31T06:33:07;94714.47;;;22.19;100.00
57801;BME280;43627;42.728;23.256;2023-07-31T06:35:35;94713.31;;;22.15;100.00
57801;BME280;43627;42.728;23.256;2023-07-31T06:38:02;94713.13;;;21.92;100.00
57801;BME280;43627;42.728;23.256;2023-07-31T06:40:29;94715.34;;;21.93;100.00
57801;BME280;43627;42.728;23.256;2023-07-31T06:42:56;94712.06;;;21.53;100.00
57801;BME280;43627;42.728;23.256;2023-07-31T06:45:23;94716.94;;;21.60;100.00
57801;BME280;43627;42.728;23.256;2023-07-31T06:47:50;94715.53;;;22.37;100.00
57801;BME280;43627;42.728;23.256;2023-07-31T06:50:16;94729.03;;;23.05;97.69
57801;BME280;43627;42.728;23.256;2023-07-31T06:52:43;94717.56;;;22.73;97.24
57801;BME280;43627;42.728;23.256;2023-07-31T06:55:17;94715.28;;;23.00;98.63
57801;BME280;43627;42.728;23.256;2023-07-31T06:57:46;94723.28;;;23.03;95.19
57801;BME280;43627;42.728;23.256;2023-07-31T07:00:13;94717.28;;;22.92;94.47
57801;BME280;43627;42.728;23.256;2023-07-31T07:02:40;94716.09;;;22.79;94.86
57801;BME280;43627;42.728;23.256;2023-07-31T07:05:07;94714.19;;;22.95;95.17
57801;BME280;43627;42.728;23.256;2023-07-31T07:07:35;94714.22;;;23.11;94.73
57801;BME280;43627;42.728;23.256;2023-07-31T07:10:02;94697.97;;;23.22;90.18
57801;BME280;43627;42.728;23.256;2023-07-31T07:12:30;94701.81;;;23.19;90.41
57801;BME280;43627;42.728;23.256;2023-07-31T07:14:57;94684.19;;;23.09;90.10
57801;BME280;43627;42.728;23.256;2023-07-31T07:17:25;94711.22;;;23.01;91.83
57801;BME280;43627;42.728;23.256;2023-07-31T07:19:52;94700.63;;;22.92;93.66
57801;BME280;43627;42.728;23.256;2023-07-31T07:22:18;94704.75;;;23.06;92.83
57801;BME280;43627;42.728;23.256;2023-07-31T07:24:45;94701.28;;;23.28;93.33
57801;BME280;43627;42.728;23.256;2023-07-31T07:27:12;94699.31;;;22.93;92.67
57801;BME280;43627;42.728;23.256;2023-07-31T07:29:38;94708.81;;;22.97;94.11
57801;BME280;43627;42.728;23.256;2023-07-31T07:32:05;94688.16;;;23.44;90.44
57801;BME280;43627;42.728;23.256;2023-07-31T07:34:32;94706.31;;;23.37;86.36
57801;BME280;43627;42.728;23.256;2023-07-31T07:36:59;94705.56;;;23.22;85.79
57801;BME280;43627;42.728;23.256;2023-07-31T07:39:25;94696.44;;;23.14;86.72
57801;BME280;43627;42.728;23.256;2023-07-31T07:41:52;94717.94;;;23.13;86.88
57801;BME280;43627;42.728;23.256;2023-07-31T07:44:20;94708.97;;;23.51;83.38
57801;BME280;43627;42.728;23.256;2023-07-31T07:46:47;94698.72;;;23.46;81.36
57801;BME280;43627;42.728;23.256;2023-07-31T07:49:13;94714.19;;;23.62;84.76
57801;BME280;43627;42.728;23.256;2023-07-31T07:51:40;94711.59;;;23.72;79.93
57801;BME280;43627;42.728;23.256;2023-07-31T07:54:07;94713.16;;;23.29;83.28
57801;BME280;43627;42.728;23.256;2023-07-31T07:56:34;94721.91;;;23.33;82.92
57801;BME280;43627;42.728;23.256;2023-07-31T07:59:03;94705.00;;;23.23;79.41
57801;BME280;43627;42.728;23.256;2023-07-31T08:01:30;94714.22;;;23.11;82.59
57801;BME280;43627;42.728;23.256;2023-07-31T08:03:57;94722.66;;;23.49;76.80
57801;BME280;43627;42.728;23.256;2023-07-31T08:06:24;94726.09;;;23.70;76.14
57801;BME280;43627;42.728;23.256;2023-07-31T08:08:51;94721.44;;;24.03;71.58
57801;BME280;43627;42.728;23.256;2023-07-31T08:11:18;94724.03;;;24.24;69.93
57801;BME280;43627;42.728;23.256;2023-07-31T08:13:45;94726.28;;;24.18;69.58
57801;BME280;43627;42.728;23.256;2023-07-31T08:16:12;94713.63;;;24.55;71.38
57801;BME280;43627;42.728;23.256;2023-07-31T08:18:39;94718.09;;;24.20;71.73
57801;BME280;43627;42.728;23.256;2023-07-31T08:21:07;94717.16;;;24.48;67.32
57801;BME280;43627;42.728;23.256;2023-07-31T08:23:34;94711.69;;;24.73;65.40
57801;BME280;43627;42.728;23.256;2023-07-31T08:26:00;94702.91;;;24.92;65.82
57801;BME280;43627;42.728;23.256;2023-07-31T08:28:27;94713.03;;;25.20;62.65
57801;BME280;43627;42.728;23.256;2023-07-31T08:30:54;94709.41;;;24.94;61.46
57801;BME280;43627;42.728;23.256;2023-07-31T08:33:21;94717.41;;;25.05;60.95
57801;BME280;43627;42.728;23.256;2023-07-31T08:35:47;94699.78;;;25.28;58.85
57801;BME280;43627;42.728;23.256;2023-07-31T08:38:14;94710.16;;;25.68;58.27
57801;BME280;43627;42.728;23.256;2023-07-31T08:40:41;94710.25;;;25.85;55.82
57801;BME280;43627;42.728;23.256;2023-07-31T08:43:08;94714.41;;;26.01;56.11
57801;BME280;43627;42.728;23.256;2023-07-31T08:45:35;94700.13;;;25.64;55.44
57801;BME280;43627;42.728;23.256;2023-07-31T08:48:02;94714.94;;;25.10;58.29
57801;BME280;43627;42.728;23.256;2023-07-31T08:50:29;94700.91;;;25.32;58.08
57801;BME280;43627;42.728;23.256;2023-07-31T08:52:56;94708.88;;;25.36;58.33
57801;BME280;43627;42.728;23.256;2023-07-31T08:55:24;94716.34;;;25.33;59.69
57801;BME280;43627;42.728;23.256;2023-07-31T08:57:52;94722.22;;;24.97;58.65
57801;BME280;43627;42.728;23.256;2023-07-31T09:00:20;94717.47;;;24.83;61.87
57801;BME280;43627;42.728;23.256;2023-07-31T09:05:30;94716.38;;;25.58;59.08
57801;BME280;43627;42.728;23.256;2023-07-31T09:07:57;94709.47;;;25.92;57.34
57801;BME280;43627;42.728;23.256;2023-07-31T09:10:24;94709.50;;;25.84;56.82
57801;BME280;43627;42.728;23.256;2023-07-31T09:12:52;94701.19;;;25.12;60.04
57801;BME280;43627;42.728;23.256;2023-07-31T09:15:19;94709.38;;;25.10;62.05
57801;BME280;43627;42.728;23.256;2023-07-31T09:18:03;94689.56;;;25.30;60.33
57801;BME280;43627;42.728;23.256;2023-07-31T09:20:30;94700.81;;;25.08;61.33
57801;BME280;43627;42.728;23.256;2023-07-31T09:23:06;94692.09;;;25.44;61.29
57801;BME280;43627;42.728;23.256;2023-07-31T09:25:34;94689.53;;;25.71;56.90
57801;BME280;43627;42.728;23.256;2023-07-31T09:28:05;94686.69;;;25.78;56.27
57801;BME280;43627;42.728;23.256;2023-07-31T09:30:51;94684.31;;;25.92;57.02
57801;BME280;43627;42.728;23.256;2023-07-31T09:33:19;94697.38;;;26.32;55.30
57801;BME280;43627;42.728;23.256;2023-07-31T09:35:47;94684.63;;;26.63;50.97
57801;BME280;43627;42.728;23.256;2023-07-31T09:38:15;94676.63;;;26.77;50.50
57801;BME280;43627;42.728;23.256;2023-07-31T09:40:44;94678.34;;;26.90;49.54
57801;BME280;43627;42.728;23.256;2023-07-31T09:43:20;94684.13;;;26.57;50.91
57801;BME280;43627;42.728;23.256;2023-07-31T09:45:48;94686.47;;;26.01;51.83
57801;BME280;43627;42.728;23.256;2023-07-31T09:48:20;94673.72;;;26.15;51.38
57801;BME280;43627;42.728;23.256;2023-07-31T09:50:48;94676.13;;;26.88;49.33
57801;BME280;43627;42.728;23.256;2023-07-31T09:53:16;94679.66;;;27.06;48.00
57801;BME280;43627;42.728;23.256;2023-07-31T09:55:43;94671.38;;;26.64;49.05
57801;BME280;43627;42.728;23.256;2023-07-31T09:58:11;94674.50;;;26.85;48.44
57801;BME280;43627;42.728;23.256;2023-07-31T10:00:38;94664.75;;;27.21;48.92
57801;BME280;43627;42.728;23.256;2023-07-31T10:03:07;94670.06;;;26.82;47.56
57801;BME280;43627;42.728;23.256;2023-07-31T10:05:44;94687.66;;;26.75;47.46
57801;BME280;43627;42.728;23.256;2023-07-31T10:08:14;94669.78;;;26.36;49.13
57801;BME280;43627;42.728;23.256;2023-07-31T10:10:43;94670.31;;;26.59;47.27
57801;BME280;43627;42.728;23.256;2023-07-31T10:13:11;94675.13;;;26.93;47.78
57801;BME280;43627;42.728;23.256;2023-07-31T10:15:38;94664.38;;;27.34;46.58
57801;BME280;43627;42.728;23.256;2023-07-31T10:18:06;94652.41;;;27.07;45.77
57801;BME280;43627;42.728;23.256;2023-07-31T10:20:33;94658.88;;;26.47;48.01
57801;BME280;43627;42.728;23.256;2023-07-31T10:23:01;94656.19;;;26.32;48.98
57801;BME280;43627;42.728;23.256;2023-07-31T10:25:28;94675.38;;;26.36;48.01
57801;BME280;43627;42.728;23.256;2023-07-31T10:27:57;94658.22;;;26.74;47.58
57801;BME280;43627;42.728;23.256;2023-07-31T10:30:26;94661.09;;;26.84;47.37
57801;BME280;43627;42.728;23.256;2023-07-31T10:32:54;94632.75;;;26.97;47.81
57801;BME280;43627;42.728;23.256;2023-07-31T10:35:22;94660.16;;;27.43;45.44
57801;BME280;43627;42.728;23.256;2023-07-31T10:37:49;94648.78;;;27.41;44.09
57801;BME280;43627;42.728;23.256;2023-07-31T10:40:17;94644.56;;;27.22;44.43
57801;BME280;43627;42.728;23.256;2023-07-31T10:45:31;94659.66;;;27.64;42.83
57801;BME280;43627;42.728;23.256;2023-07-31T10:48:06;94657.44;;;27.35;43.07
57801;BME280;43627;42.728;23.256;2023-07-31T10:50:38;94634.91;;;27.33;42.83
57801;BME280;43627;42.728;23.256;2023-07-31T10:53:05;94639.50;;;27.11;43.14
57801;BME280;43627;42.728;23.256;2023-07-31T10:55:40;94646.94;;;27.26;42.75
57801;BME280;43627;42.728;23.256;2023-07-31T10:58:09;94636.13;;;27.40;42.51
57801;BME280;43627;42.728;23.256;2023-07-31T11:00:41;94647.78;;;27.73;42.60
57801;BME280;43627;42.728;23.256;2023-07-31T11:03:19;94648.19;;;28.06;41.96
57801;BME280;43627;42.728;23.256;2023-07-31T11:08:29;94635.41;;;27.85;41.00
57801;BME280;43627;42.728;23.256;2023-07-31T11:13:32;94632.59;;;27.12;43.63
57801;BME280;43627;42.728;23.256;2023-07-31T11:16:00;94633.34;;;26.78;42.88
57801;BME280;43627;42.728;23.256;2023-07-31T11:18:27;94629.00;;;26.67;42.60
57801;BME280;43627;42.728;23.256;2023-07-31T11:20:54;94632.44;;;27.10;42.04
57801;BME280;43627;42.728;23.256;2023-07-31T11:23:22;94625.09;;;27.78;40.78
57801;BME280;43627;42.728;23.256;2023-07-31T11:25:50;94630.34;;;28.21;40.76
57801;BME280;43627;42.728;23.256;2023-07-31T11:28:19;94632.19;;;28.45;40.99
57801;BME280;43627;42.728;23.256;2023-07-31T11:30:46;94628.91;;;27.73;42.20
57801;BME280;43627;42.728;23.256;2023-07-31T11:33:13;94641.38;;;27.99;42.37
57801;BME280;43627;42.728;23.256;2023-07-31T11:35:48;94637.97;;;27.64;43.11
57801;BME280;43627;42.728;23.256;2023-07-31T11:38:32;94624.97;;;27.86;42.22
57801;BME280;43627;42.728;23.256;2023-07-31T11:41:01;94620.22;;;27.42;42.01
57801;BME280;43627;42.728;23.256;2023-07-31T11:43:31;94623.00;;;27.42;42.70
57801;BME280;43627;42.728;23.256;2023-07-31T11:46:00;94618.28;;;27.45;42.98
57801;BME280;43627;42.728;23.256;2023-07-31T11:48:32;94621.72;;;27.53;43.13
57801;BME280;43627;42.728;23.256;2023-07-31T11:51:08;94631.69;;;27.73;43.30
57801;BME280;43627;42.728;23.256;2023-07-31T11:56:07;94620.09;;;27.50;44.01
57801;BME280;43627;42.728;23.256;2023-07-31T11:58:36;94596.88;;;27.30;45.12
57801;BME280;43627;42.728;23.256;2023-07-31T12:01:03;94603.38;;;27.32;44.68
57801;BME280;43627;42.728;23.256;2023-07-31T12:03:31;94610.91;;;27.40;44.06
57801;BME280;43627;42.728;23.256;2023-07-31T12:05:59;94609.19;;;27.17;43.56
57801;BME280;43627;42.728;23.256;2023-07-31T12:08:26;94616.38;;;27.47;42.92
57801;BME280;43627;42.728;23.256;2023-07-31T12:10:54;94611.25;;;27.53;42.96
57801;BME280;43627;42.728;23.256;2023-07-31T12:13:25;94611.09;;;27.78;42.39
57801;BME280;43627;42.728;23.256;2023-07-31T12:15:56;94608.56;;;27.46;41.92
57801;BME280;43627;42.728;23.256;2023-07-31T12:18:26;94604.34;;;28.10;41.30
57801;BME280;43627;42.728;23.256;2023-07-31T12:20:57;94596.88;;;28.42;40.21
57801;BME280;43627;42.728;23.256;2023-07-31T12:23:27;94602.03;;;28.16;40.04
57801;BME280;43627;42.728;23.256;2023-07-31T12:28:35;94586.56;;;28.54;39.64
57801;BME280;43627;42.728;23.256;2023-07-31T12:31:04;94590.13;;;28.35;40.06
57801;BME280;43627;42.728;23.256;2023-07-31T12:33:32;94596.72;;;28.30;41.17
57801;BME280;43627;42.728;23.256;2023-07-31T12:36:04;94590.47;;;28.03;41.23
57801;BME280;43627;42.728;23.256;2023-07-31T12:38:31;94596.91;;;27.76;41.34
57801;BME280;43627;42.728;23.256;2023-07-31T12:40:57;94589.56;;;27.91;40.59
57801;BME280;43627;42.728;23.256;2023-07-31T12:43:24;94593.13;;;27.91;40.27
57801;BME280;43627;42.728;23.256;2023-07-31T12:45:51;94578.81;;;27.41;41.11
57801;BME280;43627;42.728;23.256;2023-07-31T12:48:18;94586.13;;;27.36;42.13
57801;BME280;43627;42.728;23.256;2023-07-31T12:50:45;94581.31;;;27.46;42.38
57801;BME280;43627;42.728;23.256;2023-07-31T12:53:11;94583.88;;;27.61;42.86
57801;BME280;43627;42.728;23.256;2023-07-31T12:55:38;94581.56;;;27.68;41.78
57801;BME280;43627;42.728;23.256;2023-07-31T12:58:05;94574.09;;;27.89;40.89
57801;BME280;43627;42.728;23.256;2023-07-31T13:00:31;94587.88;;;28.14;40.41
57801;BME280;43627;42.728;23.256;2023-07-31T13:02:59;94566.78;;;28.62;39.11
57801;BME280;43627;42.728;23.256;2023-07-31T13:05:27;94573.09;;;28.91;39.09
57801;BME280;43627;42.728;23.256;2023-07-31T13:07:54;94559.63;;;28.99;38.69
57801;BME280;43627;42.728;23.256;2023-07-31T13:10:22;94570.44;;;28.74;38.04